Time;durP1;ratioP1;P1;durP2;ratioP2;P2;SDS_P1;SDS_P2;PMS_P1;PMS_P2;Temp;Humidity;BMP_temperature;BMP_pressure;BME280_temperature;BME280_humidity;BME280_pressure;Samples;Min_cycle;Max_cycle;Signal;HPM_P1;HPM_P2
2021/06/09 06:30:57;;;;;;;11.18;5.20;;;;;;;18.99;67.37;97918.34;1889960;74;22673;-64
2021/06/09 06:33:27;;;;;;;8.60;5.35;;;;;;;19.02;66.63;97921.16;1842508;77;20881;-63
2021/06/09 06:35:59;;;;;;;6.53;4.83;;;;;;;19.15;65.87;97916.45;1850276;77;21065;-66
2021/06/09 06:38:25;;;;;;;7.10;4.85;;;;;;;19.30;65.78;97918.98;1851172;77;20978;-64
2021/06/09 06:40:52;;;;;;;7.95;4.87;;;;;;;19.43;64.34;97913.73;1819096;77;21522;-63
2021/06/09 06:43:20;;;;;;;9.85;5.22;;;;;;;19.56;64.11;97909.23;1838324;77;20963;-66
2021/06/09 06:45:47;;;;;;;4.70;4.03;;;;;;;19.70;63.45;97915.01;1848358;77;20895;-62
2021/06/09 06:48:15;;;;;;;8.03;4.22;;;;;;;19.83;62.84;97915.72;1855311;77;21444;-65
2021/06/09 06:50:44;;;;;;;10.40;4.50;;;;;;;19.97;62.63;97914.69;1837997;77;21594;-65
2021/06/09 06:53:11;;;;;;;10.98;4.62;;;;;;;20.12;62.61;97915.22;1846105;77;21246;-66
2021/06/09 06:55:39;;;;;;;7.17;4.40;;;;;;;20.27;62.54;97920.44;1853682;77;21002;-67
2021/06/09 06:58:06;;;;;;;6.53;3.77;;;;;;;20.40;62.01;97913.73;1853843;77;21038;-63
2021/06/09 07:00:33;;;;;;;10.45;4.83;;;;;;;20.51;61.42;97914.77;1812045;79;21844;-65
2021/06/09 07:03:02;;;;;;;9.95;4.53;;;;;;;20.61;61.27;97911.46;1837881;77;20963;-65
2021/06/09 07:05:32;;;;;;;9.20;4.12;;;;;;;20.72;61.04;97908.97;1854225;77;20915;-63
2021/06/09 07:08:00;;;;;;;5.95;4.03;;;;;;;20.82;60.42;97917.94;1854493;77;21046;-63
2021/06/09 07:10:27;;;;;;;7.22;4.20;;;;;;;20.92;59.50;97915.98;1855807;77;20915;-64
2021/06/09 07:12:55;;;;;;;7.95;3.72;;;;;;;20.99;59.33;97907.95;1855721;77;20956;-65
2021/06/09 07:15:22;;;;;;;7.37;3.60;;;;;;;21.09;59.24;97908.77;1855783;77;21406;-63
2021/06/09 07:17:51;;;;;;;8.10;3.52;;;;;;;21.23;58.07;97917.20;1855556;77;21002;-65
2021/06/09 07:20:22;;;;;;;7.08;3.22;;;;;;;21.32;55.92;97908.22;1855591;77;21542;-62
2021/06/09 07:22:48;;;;;;;6.50;3.20;;;;;;;21.37;55.89;97910.64;1855790;77;20994;-64
2021/06/09 07:25:15;;;;;;;9.18;3.40;;;;;;;21.41;55.69;97910.13;1855785;77;21101;-66
2021/06/09 07:27:45;;;;;;;6.55;3.58;;;;;;;21.45;55.80;97912.92;1855822;77;20950;-64
2021/06/09 07:30:15;;;;;;;6.37;3.20;;;;;;;21.48;55.71;97907.52;1855720;77;20958;-66
2021/06/09 07:32:43;;;;;;;6.83;3.12;;;;;;;21.53;56.02;97915.40;1855577;77;20988;-64
2021/06/09 07:35:11;;;;;;;5.05;3.30;;;;;;;21.63;56.24;97913.44;1855788;77;20931;-65
2021/06/09 07:37:42;;;;;;;9.53;3.98;;;;;;;21.78;55.04;97909.81;1855796;77;21125;-63
2021/06/09 07:40:12;;;;;;;10.30;3.62;;;;;;;21.88;55.24;97914.46;1823027;77;21506;-64
2021/06/09 07:42:42;;;;;;;8.48;3.60;;;;;;;21.97;55.53;97910.90;1855380;77;20987;-65
2021/06/09 07:45:11;;;;;;;7.92;3.40;;;;;;;22.08;54.85;97922.75;1855288;77;20907;-62
2021/06/09 07:47:44;;;;;;;5.17;3.58;;;;;;;22.13;54.48;97915.63;1856125;77;20896;-65
2021/06/09 07:50:13;;;;;;;5.70;3.72;;;;;;;22.17;54.24;97921.91;1854981;77;21109;-67
2021/06/09 07:52:41;;;;;;;4.62;3.22;;;;;;;22.21;53.07;97925.49;1839848;77;20959;-66
2021/06/09 07:55:09;;;;;;;5.05;2.98;;;;;;;22.23;53.28;97923.95;1770135;80;20999;-65
2021/06/09 07:57:37;;;;;;;8.13;3.50;;;;;;;22.33;52.81;97922.53;1849998;77;21406;-65
2021/06/09 08:00:11;;;;;;;4.65;3.47;;;;;;;22.42;52.83;97914.88;1849808;77;20852;-64
2021/06/09 08:02:44;;;;;;;7.50;3.92;;;;;;;22.54;52.61;97920.09;1849923;77;21420;-65
2021/06/09 08:05:12;;;;;;;8.30;3.47;;;;;;;22.67;51.85;97920.11;1849753;77;20856;-64
2021/06/09 08:07:39;;;;;;;5.45;3.25;;;;;;;22.77;52.01;97918.67;1850263;77;21494;-65
2021/06/09 08:10:10;;;;;;;8.08;2.95;;;;;;;22.87;51.16;97917.42;1849725;77;20904;-65
2021/06/09 08:12:37;;;;;;;8.15;3.72;;;;;;;23.01;51.28;97920.32;1849124;77;21449;-66
2021/06/09 08:15:07;;;;;;;8.20;3.17;;;;;;;23.15;50.83;97923.21;1848201;77;21112;-64
2021/06/09 08:17:38;;;;;;;7.30;2.90;;;;;;;23.21;49.41;97923.67;1848562;77;20951;-64
2021/06/09 08:20:08;;;;;;;5.90;3.10;;;;;;;23.09;49.13;97930.19;1849381;77;21454;-64
2021/06/09 08:22:38;;;;;;;7.37;2.80;;;;;;;22.99;49.50;97928.68;1850001;77;20923;-65
2021/06/09 08:25:05;;;;;;;6.75;4.08;;;;;;;22.95;50.61;97919.09;1849834;77;20944;-64
2021/06/09 08:27:33;;;;;;;5.47;3.20;;;;;;;23.09;50.20;97918.47;1850199;77;21704;-64
2021/06/09 08:30:01;;;;;;;3.27;2.90;;;;;;;23.15;49.20;97926.55;1846410;77;20932;-67
2021/06/09 08:32:29;;;;;;;5.50;2.83;;;;;;;23.10;49.12;97929.00;1816692;77;21553;-65
2021/06/09 08:34:57;;;;;;;7.45;2.77;;;;;;;23.08;48.59;97928.59;1844251;77;20935;-64
2021/06/09 08:37:27;;;;;;;5.67;3.00;;;;;;;23.16;49.39;97925.38;1844498;77;20960;-65
2021/06/09 08:39:56;;;;;;;5.05;2.75;;;;;;;23.29;49.75;97925.91;1835137;77;20879;-65
2021/06/09 08:42:25;;;;;;;6.22;3.10;;;;;;;23.42;48.08;97925.86;1855363;77;21451;-65
2021/06/09 08:44:52;;;;;;;9.68;3.25;;;;;;;23.54;48.66;97928.33;1851809;77;21486;-64
2021/06/09 08:47:21;;;;;;;10.63;3.20;;;;;;;23.73;47.16;97917.97;1842119;77;21082;-65
2021/06/09 08:49:48;;;;;;;8.20;3.17;;;;;;;23.83;47.21;97920.59;1845856;77;21001;-67
2021/06/09 08:52:16;;;;;;;5.50;2.70;;;;;;;23.77;47.07;97919.36;1772088;81;21760;-63
2021/06/09 08:54:47;;;;;;;4.95;2.90;;;;;;;23.55;47.41;97920.34;1780358;80;21376;-66
2021/06/09 08:57:14;;;;;;;4.40;2.60;;;;;;;23.46;47.16;97923.97;1777171;80;20837;-64
2021/06/09 08:59:44;;;;;;;3.62;2.62;;;;;;;23.37;48.23;97927.56;1783873;80;21451;-63
2021/06/09 09:02:12;;;;;;;8.13;2.70;;;;;;;23.37;48.05;97922.09;1766934;80;21062;-62
2021/06/09 09:04:40;;;;;;;7.17;2.77;;;;;;;23.39;47.29;97923.91;1751346;82;21129;-65
2021/06/09 09:07:12;;;;;;;4.12;2.60;;;;;;;23.50;47.93;97922.05;1752361;82;21008;-63
2021/06/09 09:09:40;;;;;;;8.33;3.10;;;;;;;23.68;47.05;97919.68;1752869;82;21487;-64
2021/06/09 09:12:10;;;;;;;3.45;2.20;;;;;;;23.85;45.45;97916.89;1752799;81;21577;-63
2021/06/09 09:14:39;;;;;;;8.40;2.62;;;;;;;23.98;44.93;97920.09;1752573;82;20999;-63
2021/06/09 09:17:12;;;;;;;4.12;2.50;;;;;;;24.11;44.46;97918.68;1753004;82;21119;-67
2021/06/09 09:19:42;;;;;;;4.95;3.25;;;;;;;24.29;45.11;97921.73;1753219;81;21525;-66
2021/06/09 09:22:17;;;;;;;4.85;3.08;;;;;;;24.42;44.02;97920.23;1727168;80;21110;-62
2021/06/09 09:24:49;;;;;;;7.33;3.10;;;;;;;24.38;43.41;97918.07;1783850;80;20927;-62
2021/06/09 09:27:32;;;;;;;6.90;2.67;;;;;;;24.27;43.64;97917.23;1783899;80;21470;-65
2021/06/09 09:30:11;;;;;;;5.28;2.30;;;;;;;24.26;43.58;97923.86;1780440;80;21132;-62
2021/06/09 09:33:08;;;;;;;10.15;2.70;;;;;;;24.29;42.86;97915.47;1743174;81;21490;-66
2021/06/09 09:35:38;;;;;;;3.47;2.10;;;;;;;24.14;42.82;97919.30;1738639;82;20897;-64
2021/06/09 09:38:14;;;;;;;7.08;2.10;;;;;;;23.74;39.46;97922.87;1739346;82;20983;-64
2021/06/09 09:41:04;;;;;;;8.75;2.05;;;;;;;23.49;40.03;97921.26;1733182;82;20952;-65
2021/06/09 09:43:54;;;;;;;4.72;1.82;;;;;;;23.50;41.02;97922.05;1740629;82;21918;-68
2021/06/09 09:46:39;;;;;;;6.87;2.62;;;;;;;23.64;40.34;97910.67;1744795;81;20979;-61
2021/06/09 09:49:13;;;;;;;4.05;2.20;;;;;;;23.81;40.68;97917.45;1765610;81;20849;-63
2021/06/09 09:51:59;;;;;;;4.70;2.08;;;;;;;23.94;39.87;97908.35;1740533;82;21546;-63
2021/06/09 09:54:34;;;;;;;6.60;2.30;;;;;;;23.95;40.35;97909.36;1740502;82;20928;-61
2021/06/09 09:57:05;;;;;;;;;;;;;;;23.83;42.00;97907.68;1750366;81;21479;-65
2021/06/09 09:59:35;;;;;;;4.50;2.17;;;;;;;23.71;41.74;97904.47;1759369;81;20370;-62
2021/06/09 10:02:04;;;;;;;3.40;1.82;;;;;;;23.70;41.05;97894.11;1740449;82;21420;-63
2021/06/09 10:04:38;;;;;;;3.95;2.20;;;;;;;23.81;40.15;97887.38;1759997;81;20941;-63
2021/06/09 10:07:03;;;;;;;6.62;2.85;;;;;;;24.04;40.48;97896.71;1770115;81;20972;-64
2021/06/09 10:09:39;;;;;;;6.80;2.17;;;;;;;24.22;41.03;97899.80;1741128;81;21515;-62
2021/06/09 10:12:16;;;;;;;4.30;2.17;;;;;;;24.33;40.66;97900.64;1770841;81;20944;-65
2021/06/09 10:14:49;;;;;;;5.67;1.90;;;;;;;24.43;40.37;97896.39;1770981;81;21416;-62
2021/06/09 10:17:21;;;;;;;4.00;1.85;;;;;;;24.47;39.19;97898.59;1770926;81;20912;-63
2021/06/09 10:20:00;;;;;;;4.17;2.10;;;;;;;24.39;39.28;97884.64;1770456;81;21059;-62
2021/06/09 10:22:37;;;;;;;5.42;2.27;;;;;;;24.32;40.21;97888.14;1753766;81;21553;-63
2021/06/09 10:25:14;;;;;;;5.20;2.00;;;;;;;24.25;38.79;97889.47;1754311;81;26429;-63
2021/06/09 10:27:53;;;;;;;4.78;2.00;;;;;;;24.18;39.02;97883.16;1754173;81;20942;-61
2021/06/09 10:30:24;;;;;;;6.80;2.60;;;;;;;24.26;41.11;97870.49;1771987;80;20914;-62
2021/06/09 10:33:01;;;;;;;5.25;2.47;;;;;;;24.52;40.27;97867.31;1778229;80;20971;-63
2021/06/09 10:35:31;;;;;;;3.60;2.25;;;;;;;24.63;40.04;97873.63;1783629;80;21187;-64
2021/06/09 10:37:59;;;;;;;4.45;2.25;;;;;;;24.58;37.66;97872.61;1783963;80;21530;-66
2021/06/09 10:40:29;;;;;;;6.58;1.87;;;;;;;24.58;37.66;97872.61;1784133;80;21455;-62
2021/06/09 10:42:59;;;;;;;4.33;2.17;;;;;;;24.47;37.93;97876.08;1783814;80;20896;-63
2021/06/09 10:45:27;;;;;;;7.25;2.35;;;;;;;24.33;38.61;97859.58;1784506;80;20892;-62
2021/06/09 10:47:58;;;;;;;4.12;2.45;;;;;;;24.22;39.00;97866.95;1784783;80;21420;-62
2021/06/09 10:50:26;;;;;;;4.37;2.45;;;;;;;24.08;40.52;97872.92;1784175;80;21447;-62
2021/06/09 10:52:53;;;;;;;7.22;2.30;;;;;;;23.93;39.99;97870.64;1784437;80;21455;-61
2021/06/09 10:55:22;;;;;;;6.75;2.15;;;;;;;23.88;40.77;97854.61;1784330;80;21462;-61
2021/06/09 10:57:50;;;;;;;3.77;1.70;;;;;;;23.90;40.15;97858.32;1784079;80;21579;-62
2021/06/09 11:00:20;;;;;;;7.30;2.22;;;;;;;23.88;39.96;97854.61;1781628;80;21641;-63
2021/06/09 11:02:48;;;;;;;5.83;1.90;;;;;;;23.95;39.46;97849.19;1756064;80;21437;-64
2021/06/09 11:05:15;;;;;;;6.87;2.17;;;;;;;24.17;38.65;97840.53;1784379;80;21434;-61
2021/06/09 11:07:44;;;;;;;4.20;2.70;;;;;;;24.45;39.48;97834.63;1784141;80;21469;-64
2021/06/09 11:10:31;;;;;;;5.28;2.60;;;;;;;24.66;38.44;97833.16;1784539;80;20997;-63
2021/06/09 11:12:59;;;;;;;3.17;2.47;;;;;;;24.66;37.44;97831.78;1784516;80;21890;-62
2021/06/09 11:15:31;;;;;;;7.60;2.17;;;;;;;24.67;39.51;97831.97;1784241;80;21480;-63
2021/06/09 11:17:57;;;;;;;5.10;2.00;;;;;;;24.73;38.76;97831.81;1783049;80;20929;-65
2021/06/09 11:20:39;;;;;;;4.10;1.98;;;;;;;24.70;38.29;97839.41;1779265;80;21132;-64
2021/06/09 11:23:13;;;;;;;4.60;1.90;;;;;;;24.61;37.69;97827.47;1783614;80;21039;-65
2021/06/09 11:25:44;;;;;;;5.15;2.30;;;;;;;24.42;38.01;97832.64;1772690;80;21879;-60
2021/06/09 11:28:20;;;;;;;3.52;2.00;;;;;;;24.25;37.39;97832.58;1783159;80;21058;-62
2021/06/09 11:31:10;;;;;;;6.25;1.80;;;;;;;24.38;37.95;97826.95;1777887;80;22065;-61
2021/06/09 11:33:59;;;;;;;3.90;2.12;;;;;;;24.57;38.03;97829.97;1764509;81;21062;-60
2021/06/09 11:36:39;;;;;;;8.30;2.58;;;;;;;24.63;37.60;97835.28;1766394;81;21352;-61
2021/06/09 11:39:19;;;;;;;5.03;1.98;;;;;;;24.48;38.04;97845.39;1766161;81;21123;-63
2021/06/09 11:41:48;;;;;;;3.35;1.90;;;;;;;24.16;38.81;97831.56;1765684;81;21020;-63
2021/06/09 11:44:35;;;;;;;3.70;2.75;;;;;;;23.77;37.98;97845.52;1766191;81;20885;-63
2021/06/09 11:47:26;;;;;;;5.08;2.60;;;;;;;23.50;38.25;97840.05;1766163;81;20980;-66
2021/06/09 11:50:17;;;;;;;6.12;2.33;;;;;;;23.48;37.57;97831.45;1765768;81;21008;-63
2021/06/09 11:53:13;;;;;;;2.12;1.45;;;;;;;23.52;37.00;97834.98;1761898;81;21885;-63
2021/06/09 11:55:41;;;;;;;4.05;1.70;;;;;;;23.47;35.73;97834.75;1766004;81;20991;-61
2021/06/09 11:58:11;;;;;;;7.03;1.70;;;;;;;23.56;35.92;97833.84;1766244;81;20924;-62
2021/06/09 12:01:04;;;;;;;3.72;2.33;;;;;;;23.75;36.31;97824.03;1766531;81;20886;-61
2021/06/09 12:03:32;;;;;;;4.08;2.00;;;;;;;23.84;36.18;97829.16;1764103;81;20937;-61
2021/06/09 12:06:15;;;;;;;8.63;2.52;;;;;;;23.72;35.59;97830.83;1738232;81;21127;-62
2021/06/09 12:08:42;;;;;;;1.98;1.75;;;;;;;23.56;35.80;97828.95;1737343;81;21010;-61
2021/06/09 12:11:09;;;;;;;4.17;2.40;;;;;;;23.42;37.10;97830.20;1709235;83;21021;-62
2021/06/09 12:13:37;;;;;;;3.47;1.80;;;;;;;23.46;36.34;97824.21;1726885;83;20955;-62
2021/06/09 12:16:16;;;;;;;4.72;2.50;;;;;;;23.77;37.16;97825.02;1748568;80;21404;-61
2021/06/09 12:18:47;;;;;;;3.85;2.22;;;;;;;24.32;36.85;97821.08;1746573;81;21126;-62
2021/06/09 12:21:19;;;;;;;3.72;2.20;;;;;;;24.94;36.38;97823.67;1749016;81;21476;-63
2021/06/09 12:23:59;;;;;;;4.17;1.52;;;;;;;25.80;33.30;97821.97;1735723;82;20984;-62
2021/06/09 12:26:26;;;;;;;3.65;2.00;;;;;;;25.80;33.30;97821.97;1735369;82;20941;-59
2021/06/09 12:29:03;;;;;;;5.30;2.17;;;;;;;25.78;32.16;97822.38;1745793;81;21023;-61
2021/06/09 12:31:35;;;;;;;3.15;1.60;;;;;;;25.58;32.72;97816.30;1770388;80;21879;-60
2021/06/09 12:34:04;;;;;;;5.95;1.60;;;;;;;24.81;34.28;97819.71;1752108;80;21024;-59
2021/06/09 12:36:30;;;;;;;3.02;1.70;;;;;;;24.81;34.28;97819.71;1772292;80;21020;-60
2021/06/09 12:38:57;;;;;;;3.62;1.95;;;;;;;24.53;34.82;97817.64;1780544;80;20894;-60
2021/06/09 12:41:30;;;;;;;4.33;2.42;;;;;;;24.14;36.12;97820.80;1809557;79;21449;-60
2021/06/09 12:44:02;;;;;;;7.28;2.25;;;;;;;24.14;36.12;97820.80;1849406;77;21130;-60
2021/06/09 12:46:29;;;;;;;6.40;2.12;;;;;;;23.97;36.80;97816.77;1847117;77;20994;-60
2021/06/09 12:48:56;;;;;;;5.90;2.40;;;;;;;24.04;37.16;97827.74;1847753;77;21176;-61
2021/06/09 12:51:24;;;;;;;5.03;2.50;;;;;;;24.40;37.86;97826.02;1815662;77;21035;-63
2021/06/09 12:53:52;;;;;;;6.67;2.27;;;;;;;24.88;37.17;97806.03;1847901;77;20966;-62
2021/06/09 12:56:19;;;;;;;3.90;1.87;;;;;;;25.50;36.58;97812.80;1848717;77;21040;-61
2021/06/09 12:58:47;;;;;;;4.20;1.80;;;;;;;26.07;36.68;97803.91;1848264;77;20975;-60
2021/06/09 13:01:15;;;;;;;3.62;1.77;;;;;;;26.37;35.91;97804.81;1848712;77;20836;-61
2021/06/09 13:03:45;;;;;;;5.22;2.15;;;;;;;26.45;35.61;97815.94;1849419;77;20888;-61
2021/06/09 13:06:23;;;;;;;9.28;2.35;;;;;;;26.17;35.94;97817.41;1848415;77;21027;-60
2021/06/09 13:08:56;;;;;;;5.90;1.82;;;;;;;25.83;36.28;97823.16;1827798;77;21092;-57
2021/06/09 13:11:32;;;;;;;6.55;1.70;;;;;;;25.38;38.54;97861.72;1790838;78;21494;-64
2021/06/09 13:14:06;;;;;;;3.22;1.30;;;;;;;24.61;43.88;97870.48;1815525;79;20968;-62
2021/06/09 13:16:39;;;;;;;3.20;1.52;;;;;;;23.30;46.31;97838.66;1815604;79;21467;-64
2021/06/09 13:19:15;;;;;;;4.42;1.75;;;;;;;22.35;47.61;97832.33;1815691;79;21052;-64
2021/06/09 13:21:45;;;;;;;3.83;1.70;;;;;;;21.78;51.13;97823.15;1816554;79;21141;-62
2021/06/09 13:24:22;;;;;;;9.50;2.02;;;;;;;21.25;55.50;97847.38;1816333;79;21056;-64
2021/06/09 13:27:08;;;;;;;6.97;2.30;;;;;;;20.68;58.78;97857.77;1816473;79;20874;-64
2021/06/09 13:29:52;;;;;;;4.28;2.20;;;;;;;20.24;57.42;97881.14;1816752;79;20925;-63
2021/06/09 13:32:31;;;;;;;5.10;2.40;;;;;;;19.94;58.80;97892.84;1817067;78;21024;-64
2021/06/09 13:35:07;;;;;;;4.55;2.60;;;;;;;19.80;60.99;97893.31;1817316;79;21171;-66
2021/06/09 13:37:40;;;;;;;2.75;2.10;;;;;;;19.78;61.91;97892.88;1817633;79;20886;-63
2021/06/09 13:40:19;;;;;;;7.30;2.52;;;;;;;19.82;60.30;97891.02;1817367;79;20846;-64
2021/06/09 13:42:45;;;;;;;7.95;2.30;;;;;;;19.92;61.58;97901.36;1816850;79;20925;-64
2021/06/09 13:45:21;;;;;;;4.60;1.80;;;;;;;20.08;60.41;97898.05;1817276;79;20894;-64
2021/06/09 13:47:47;;;;;;;4.37;1.80;;;;;;;20.21;58.44;97889.18;1817273;79;21058;-64
2021/06/09 13:50:21;;;;;;;9.20;1.90;;;;;;;20.35;58.64;97893.03;1818456;79;21403;-62
2021/06/09 13:52:50;;;;;;;4.83;1.42;;;;;;;20.63;55.46;97887.42;1819182;79;20864;-64
2021/06/09 13:55:22;;;;;;;2.45;1.52;;;;;;;20.99;52.98;97884.80;1791278;79;20920;-63
2021/06/09 13:57:52;;;;;;;6.45;1.32;;;;;;;21.29;52.39;97880.33;1780274;80;21383;-64
2021/06/09 14:00:24;;;;;;;8.90;1.50;;;;;;;21.74;51.29;97881.69;1817501;79;21105;-65
2021/06/09 14:02:51;;;;;;;7.83;1.72;;;;;;;22.02;48.17;97877.86;1776752;80;21505;-63
2021/06/09 14:05:23;;;;;;;13.03;1.77;;;;;;;22.04;48.35;97879.64;1749514;81;20890;-63
2021/06/09 14:07:57;;;;;;;5.75;1.40;;;;;;;21.96;49.11;97877.95;1749227;82;20899;-66
2021/06/09 14:10:29;;;;;;;4.78;1.12;;;;;;;21.81;47.01;97879.07;1787065;80;21411;-63
2021/06/09 14:12:56;;;;;;;3.33;1.12;;;;;;;21.65;48.94;97874.91;1749329;82;21694;-63
2021/06/09 14:15:35;;;;;;;5.60;1.40;;;;;;;21.50;49.56;97877.20;1769732;80;20919;-63
2021/06/09 14:18:10;;;;;;;3.58;1.40;;;;;;;21.39;50.20;97870.77;1755357;80;21470;-66
2021/06/09 14:20:44;;;;;;;3.05;1.30;;;;;;;21.35;50.29;97871.29;1749040;81;20875;-64
2021/06/09 14:23:11;;;;;;;1.95;1.10;;;;;;;21.29;49.53;97866.70;1749232;82;21482;-65
2021/06/09 14:25:42;;;;;;;4.85;1.35;;;;;;;21.24;49.01;97867.03;1749510;82;21095;-69
2021/06/09 14:28:16;;;;;;;7.90;1.80;;;;;;;21.23;49.60;97860.57;1749334;82;20876;-63
2021/06/09 14:30:53;;;;;;;1.98;1.40;;;;;;;21.16;50.08;97857.15;1756550;80;20931;-67
2021/06/09 14:33:44;;;;;;;3.33;1.35;;;;;;;21.21;49.53;97859.58;1811771;78;20975;-61
2021/06/09 14:38:43;;;;;;;3.98;1.55;;;;;;;21.73;49.38;97856.95;1830017;78;21137;-62
2021/06/09 14:41:29;;;;;;;3.12;1.42;;;;;;;21.94;47.15;97851.63;1758778;81;21020;-61
2021/06/09 14:44:09;;;;;;;1.50;1.20;;;;;;;22.01;45.63;97843.55;1770070;81;21543;-63
2021/06/09 14:46:55;;;;;;;3.30;1.40;;;;;;;21.99;46.24;97840.41;1745208;80;21469;-65
2021/06/09 14:49:32;;;;;;;3.87;1.25;;;;;;;22.02;46.35;97839.09;1763507;80;21417;-62
2021/06/09 14:52:20;;;;;;;5.97;1.40;;;;;;;22.34;46.43;97844.98;1773514;80;21122;-62
2021/06/09 14:55:02;;;;;;;3.37;1.20;;;;;;;22.47;44.61;97846.31;1832736;78;20869;-62
2021/06/09 14:57:29;;;;;;;3.95;1.30;;;;;;;22.67;43.89;97840.95;1810803;79;21390;-61
2021/06/09 15:00:11;;;;;;;2.83;1.20;;;;;;;23.03;44.20;97846.22;1810532;79;20876;-60
2021/06/09 15:02:38;;;;;;;2.67;1.50;;;;;;;23.20;43.53;97842.86;1810254;79;20876;-61
2021/06/09 15:05:07;;;;;;;1.82;1.60;;;;;;;23.17;42.97;97849.67;1821910;77;21105;-61
2021/06/09 15:07:35;;;;;;;4.00;1.75;;;;;;;22.94;45.23;97871.08;1829590;77;20942;-60
2021/06/09 15:10:04;;;;;;;2.58;1.82;;;;;;;22.66;46.96;97876.82;1803994;79;20910;-63
2021/06/09 15:12:31;;;;;;;2.58;1.87;;;;;;;22.20;49.51;97873.44;1804123;79;21493;-61
2021/06/09 15:14:57;;;;;;;2.45;1.72;;;;;;;22.20;49.51;97873.44;1815279;78;21368;-61
2021/06/09 15:17:24;;;;;;;3.22;1.90;;;;;;;22.02;49.95;97871.05;1827026;78;21003;-62
2021/06/09 15:19:51;;;;;;;3.17;2.02;;;;;;;22.01;50.48;97875.70;1825838;78;20995;-61
2021/06/09 15:22:19;;;;;;;7.00;2.22;;;;;;;22.15;50.56;97868.30;1825599;78;21059;-61
2021/06/09 15:24:46;;;;;;;4.30;2.20;;;;;;;22.48;50.28;97866.42;1827089;78;21369;-64
2021/06/09 15:27:13;;;;;;;2.50;2.08;;;;;;;23.00;49.44;97863.35;1827236;78;20905;-63
2021/06/09 15:29:41;;;;;;;2.98;1.85;;;;;;;23.44;48.06;97862.04;1826142;78;21165;-60
2021/06/09 15:32:08;;;;;;;3.22;1.67;;;;;;;23.84;46.59;97860.61;1829280;76;20955;-66
2021/06/09 15:34:35;;;;;;;1.60;1.25;;;;;;;24.22;44.61;97866.95;1837323;78;21679;-61
2021/06/09 15:37:03;;;;;;;3.05;1.10;;;;;;;24.52;42.70;97861.84;1837061;78;21047;-62
2021/06/09 15:39:30;;;;;;;1.65;1.30;;;;;;;24.63;41.86;97868.14;1837505;78;21027;-67
2021/06/09 15:41:57;;;;;;;1.92;1.22;;;;;;;24.49;41.26;97871.00;1837170;78;21165;-66
2021/06/09 15:44:23;;;;;;;2.98;1.60;;;;;;;24.24;41.16;97870.09;1837457;78;20959;-64
2021/06/09 15:46:51;;;;;;;4.25;1.50;;;;;;;23.91;42.35;97874.34;1838577;78;20940;-63
2021/06/09 15:49:26;;;;;;;3.47;1.37;;;;;;;23.55;42.87;97865.06;1838836;78;21404;-62
2021/06/09 15:51:55;;;;;;;2.00;1.60;;;;;;;23.28;43.48;97870.47;1838859;78;20951;-65
2021/06/09 15:54:25;;;;;;;5.22;1.65;;;;;;;22.96;44.71;97883.78;1838867;78;21109;-65
2021/06/09 15:56:54;;;;;;;3.77;1.98;;;;;;;22.61;45.48;97890.79;1838723;78;20952;-61
2021/06/09 15:59:30;;;;;;;4.40;2.12;;;;;;;22.26;46.25;97893.78;1839009;78;21545;-64
2021/06/09 16:01:57;;;;;;;4.12;1.70;;;;;;;21.95;47.18;97892.76;1838738;78;20987;-65
2021/06/09 16:04:24;;;;;;;3.17;1.80;;;;;;;21.70;47.90;97890.39;1811176;78;20948;-62
2021/06/09 16:06:51;;;;;;;2.70;1.65;;;;;;;21.45;48.63;97887.04;1839063;78;21700;-65
2021/06/09 16:09:17;;;;;;;4.05;1.57;;;;;;;21.20;49.29;97882.50;1838751;78;20857;-63
2021/06/09 16:11:44;;;;;;;5.50;1.70;;;;;;;21.03;49.99;97878.88;1838789;78;20880;-65
2021/06/09 16:14:11;;;;;;;3.95;2.00;;;;;;;20.91;50.40;97875.73;1838871;78;21475;-63
2021/06/09 16:16:38;;;;;;;6.70;2.02;;;;;;;20.83;50.88;97874.58;1838853;78;20857;-62
2021/06/09 16:19:05;;;;;;;2.55;1.87;;;;;;;20.74;50.88;97878.09;1838980;78;21891;-62
2021/06/09 16:21:33;;;;;;;2.55;1.80;;;;;;;20.62;51.83;97898.08;1838770;78;20951;-65
2021/06/09 16:24:00;;;;;;;3.90;2.00;;;;;;;20.44;52.45;97916.73;1839110;78;20907;-64
2021/06/09 16:26:27;;;;;;;2.50;1.82;;;;;;;20.25;53.42;97949.37;1838820;78;20992;-63
2021/06/09 16:28:54;;;;;;;4.20;2.22;;;;;;;20.03;54.13;97962.20;1838876;78;20944;-63
2021/06/09 16:31:22;;;;;;;4.42;2.10;;;;;;;19.85;54.52;97966.42;1838704;78;21048;-65
2021/06/09 16:33:49;;;;;;;3.52;1.98;;;;;;;19.66;55.78;97983.42;1828305;77;20873;-61
2021/06/09 16:36:16;;;;;;;2.55;1.82;;;;;;;19.47;57.46;97992.02;1827164;78;20960;-60
2021/06/09 16:38:42;;;;;;;2.65;1.60;;;;;;;19.24;59.00;97984.19;1827112;78;21045;-62
2021/06/09 16:41:09;;;;;;;1.45;1.35;;;;;;;19.02;59.82;97975.45;1827152;78;20999;-65
2021/06/09 16:43:38;;;;;;;3.27;1.57;;;;;;;18.87;60.71;97963.95;1827257;78;21826;-64
2021/06/09 16:46:05;;;;;;;5.28;2.00;;;;;;;18.76;61.48;97961.52;1827117;78;20842;-63
2021/06/09 16:48:31;;;;;;;4.12;1.98;;;;;;;18.67;62.17;97954.09;1827420;78;20993;-64
2021/06/09 16:50:58;;;;;;;3.50;1.70;;;;;;;18.52;62.73;97952.08;1827115;78;20854;-64
2021/06/09 16:53:25;;;;;;;2.62;1.70;;;;;;;18.39;63.15;97947.79;1827524;78;20912;-65
2021/06/09 17:01:22;;;;;;;3.37;2.05;;;;;;;18.07;64.55;97947.34;1827157;78;20908;-63
2021/06/09 17:03:50;;;;;;;3.75;2.27;;;;;;;17.96;64.71;97940.81;1827027;78;21053;-62
2021/06/09 17:06:16;;;;;;;5.25;2.70;;;;;;;17.84;64.99;97944.88;1806628;78;21000;-62
2021/06/09 17:08:43;;;;;;;3.83;2.20;;;;;;;17.78;65.67;97942.17;1827134;78;21084;-62
2021/06/09 17:11:10;;;;;;;3.92;2.30;;;;;;;17.66;65.88;97943.72;1827055;78;21511;-62
2021/06/09 17:13:37;;;;;;;5.42;2.40;;;;;;;17.58;66.50;97940.56;1827111;78;20945;-62
2021/06/09 17:16:06;;;;;;;3.20;2.33;;;;;;;17.51;67.13;97944.39;1827099;78;20861;-62
2021/06/09 17:18:34;;;;;;;5.58;2.60;;;;;;;17.46;67.22;97932.95;1827166;78;20955;-62
2021/06/09 17:21:01;;;;;;;2.60;2.40;;;;;;;17.38;67.62;97931.91;1827137;78;21084;-61
2021/06/09 17:23:28;;;;;;;3.20;2.25;;;;;;;17.41;67.82;97929.09;1826921;78;20897;-63
2021/06/09 17:25:56;;;;;;;2.22;1.98;;;;;;;17.46;67.80;97928.33;1827127;78;20833;-65
2021/06/09 17:28:22;;;;;;;3.70;2.40;;;;;;;17.47;67.59;97925.06;1827119;78;21440;-63
2021/06/09 17:30:49;;;;;;;5.62;2.05;;;;;;;17.47;67.56;97923.16;1827107;78;20865;-63
2021/06/09 17:33:16;;;;;;;2.80;2.17;;;;;;;17.49;67.68;97924.95;1830054;78;21435;-63
2021/06/09 17:35:43;;;;;;;2.83;2.02;;;;;;;17.47;67.56;97922.36;1833077;78;21000;-63
